Map

Track Data

SID SEASON NUMBER BASIN SUBBASIN NAME ISO_TIME NATURE LAT LON WMO_WIND WMO_PRES WMO_AGENCY TRACK_TYPE DIST2LAND LANDFALL IFLAG USA_AGENCY USA_ATCF_ID USA_LAT USA_LON USA_RECORD USA_STATUS USA_WIND USA_PRES USA_SSHS USA_R34_NE USA_R34_SE USA_R34_SW USA_R34_NW USA_R50_NE USA_R50_SE USA_R50_SW USA_R50_NW USA_R64_NE USA_R64_SE USA_R64_SW USA_R64_NW USA_POCI USA_ROCI USA_RMW USA_EYE TOKYO_LAT TOKYO_LON TOKYO_GRADE TOKYO_WIND TOKYO_PRES TOKYO_R50_DIR TOKYO_R50_LONG TOKYO_R50_SHORT TOKYO_R30_DIR TOKYO_R30_LONG TOKYO_R30_SHORT TOKYO_LAND CMA_LAT CMA_LON CMA_CAT CMA_WIND CMA_PRES HKO_LAT HKO_LON HKO_CAT HKO_WIND HKO_PRES NEWDELHI_LAT NEWDELHI_LON NEWDELHI_GRADE NEWDELHI_WIND NEWDELHI_PRES NEWDELHI_CI NEWDELHI_DP NEWDELHI_POCI REUNION_LAT REUNION_LON REUNION_TYPE REUNION_WIND REUNION_PRES REUNION_TNUM REUNION_CI REUNION_RMW REUNION_R34_NE REUNION_R34_SE REUNION_R34_SW REUNION_R34_NW REUNION_R50_NE REUNION_R50_SE REUNION_R50_SW REUNION_R50_NW REUNION_R64_NE REUNION_R64_SE REUNION_R64_SW REUNION_R64_NW BOM_LAT BOM_LON BOM_TYPE BOM_WIND BOM_PRES BOM_TNUM BOM_CI BOM_RMW BOM_R34_NE BOM_R34_SE BOM_R34_SW BOM_R34_NW BOM_R50_NE BOM_R50_SE BOM_R50_SW BOM_R50_NW BOM_R64_NE BOM_R64_SE BOM_R64_SW BOM_R64_NW BOM_ROCI BOM_POCI BOM_EYE BOM_POS_METHOD BOM_PRES_METHOD NADI_LAT NADI_LON NADI_CAT NADI_WIND NADI_PRES WELLINGTON_LAT WELLINGTON_LON WELLINGTON_WIND WELLINGTON_PRES DS824_LAT DS824_LON DS824_STAGE DS824_WIND DS824_PRES TD9636_LAT TD9636_LON TD9636_STAGE TD9636_WIND TD9636_PRES TD9635_LAT TD9635_LON TD9635_WIND TD9635_PRES TD9635_ROCI NEUMANN_LAT NEUMANN_LON NEUMANN_CLASS NEUMANN_WIND NEUMANN_PRES MLC_LAT MLC_LON MLC_CLASS MLC_WIND MLC_PRES USA_GUST BOM_GUST BOM_GUST_PER REUNION_GUST REUNION_GUST_PER USA_SEAHGT USA_SEARAD_NE USA_SEARAD_SE USA_SEARAD_SW USA_SEARAD_NW STORM_SPEED STORM_DIR
1953205N17158 1953 32 WP MM LOLA 1953-07-23 12:00:00 TS 17.0000 158.000 main 2340 2329 O________OOO__ jtwc_wp WP061953 17.0000 158.000 30 -1 17.0000 158.000 TC 30 17.0000 158.000 1 30 17.0000 158.000 30 1007 120 7 278
1953205N17158 1953 32 WP MM LOLA 1953-07-23 15:00:00 TS 17.0479 157.646 main 2326 2326 P________PPP__ WP061953 17.0377 157.628 30 -1 17.0377 157.628 TC 30 17.0784 157.703 1 30 17.0377 157.628 30 1007 120 7 280
1953205N17158 1953 32 WP MM LOLA 1953-07-23 18:00:00 TS 17.1138 157.326 main 2326 2323 O________OPO__ jtwc_wp WP061953 17.1000 157.300 30 -1 17.1000 157.300 TC 30 17.1553 157.405 1 30 17.1000 157.300 30 1007 120 6 286
1953205N17158 1953 32 WP MM LOLA 1953-07-23 21:00:00 TS 17.2073 157.058 main 2330 2327 P________PPP__ WP061953 17.1999 157.043 30 -1 17.1999 157.043 TC 30 17.2295 157.105 1 30 17.1999 157.043 30 1007 120 5 290
1953205N17158 1953 32 WP MM LOLA 1953-07-24 00:00:00 TS 17.3000 156.800 main 2332 2323 O________OOO__ jtwc_wp WP061953 17.3000 156.800 30 -1 17.3000 156.800 TC 30 17.3000 156.800 1 30 17.3000 156.800 30 1007 120 6 286
1953205N17158 1953 32 WP MM LOLA 1953-07-24 03:00:00 TS 17.3542 156.504 main 2333 2325 P________PPP__ WP061953 17.3500 156.507 30 -1 17.3500 156.507 TC 30 17.3668 156.492 1 30 17.3500 156.507 30 1006 150 6 281
1953205N17158 1953 32 WP MM LOLA 1953-07-24 06:00:00 TS 17.4087 156.196 main 2325 2320 O________OPO__ jtwc_wp WP061953 17.4000 156.200 30 -1 17.4000 156.200 TC 30 17.4349 156.185 1 30 17.4000 156.200 30 1006 180 6 283
1953205N17158 1953 32 WP MM LOLA 1953-07-24 09:00:00 TS 17.4914 155.891 main 2328 2323 P________PPP__ WP061953 17.4850 155.892 30 -1 17.4850 155.892 TC 30 17.5106 155.885 1 30 17.4850 155.892 30 1006 180 6 289
1953205N17158 1953 32 WP MM LOLA 1953-07-24 12:00:00 TS 17.6000 155.600 main 2331 2329 O________OOO__ jtwc_wp WP061953 17.6000 155.600 30 -1 17.6000 155.600 TC 30 17.6000 155.600 1 30 17.6000 155.600 30 1006 180 6 295
1953205N17158 1953 32 WP MM LOLA 1953-07-24 15:00:00 TS 17.7401 155.340 main 2335 2335 P________PPP__ WP061953 17.7499 155.343 30 -1 17.7499 155.343 TC 30 17.7105 155.332 1 30 17.7499 155.343 30 1006 180 6 301
1953205N17158 1953 32 WP MM LOLA 1953-07-24 18:00:00 TS 17.8837 155.094 main 2352 2350 O________OPO__ jtwc_wp WP061953 17.9000 155.100 30 -1 17.9000 155.100 TC 30 17.8348 155.077 1 30 17.9000 155.100 30 1006 180 5 298
1953205N17158 1953 32 WP MM LOLA 1953-07-24 21:00:00 TS 17.9917 154.840 main 2357 2355 P________PPP__ WP061953 18.0000 154.842 30 -1 18.0000 154.842 TC 30 17.9667 154.835 1 30 18.0000 154.842 30 1006 210 5 295
1953205N17158 1953 32 WP MM LOLA 1953-07-25 00:00:00 TS 18.1000 154.600 main 2364 2346 O________OOO__ jtwc_wp WP061953 18.1000 154.600 30 -1 18.1000 154.600 TC 30 18.1000 154.600 1 30 18.1000 154.600 30 1006 240 5 301
1953205N17158 1953 32 WP MM LOLA 1953-07-25 03:00:00 TS 18.2426 154.394 main 2346 2316 P________PPP__ WP061953 18.2499 154.400 35 0 18.2499 154.400 TC 35 18.2207 154.376 1 35 18.2499 154.400 35 1006 240 5 306
1953205N17158 1953 32 WP MM LOLA 1953-07-25 06:00:00 TS 18.3856 154.189 main 2316 2295 O________OPO__ jtwc_wp WP061953 18.4000 154.200 40 0 18.4000 154.200 TC 40 18.3422 154.157 1 40 18.4000 154.200 40 1006 240 5 301
1953205N17158 1953 32 WP MM LOLA 1953-07-25 09:00:00 TS 18.4919 153.957 main 2295 2269 P________PPP__ WP061953 18.5000 153.965 45 0 18.5000 153.965 TC 45 18.4676 153.935 1 45 18.5000 153.965 45 1005 240 5 295
1953205N17158 1953 32 WP MM LOLA 1953-07-25 12:00:00 TS 18.6000 153.700 main 2269 2242 O________OOO__ jtwc_wp WP061953 18.6000 153.700 50 0 18.6000 153.700 TC 50 18.6000 153.700 2 50 18.6000 153.700 50 1005 240 6 296
1953205N17158 1953 32 WP MM LOLA 1953-07-25 15:00:00 TS 18.7436 153.410 main 2242 2207 P________PPP__ WP061953 18.7425 153.400 50 0 18.7425 153.400 TC 50 18.7469 153.439 2 50 18.7425 153.400 50 1005 240 6 299
1953205N17158 1953 32 WP MM LOLA 1953-07-25 18:00:00 TS 18.9000 153.116 main 2207 2186 O________OPO__ jtwc_wp WP061953 18.9000 153.100 50 0 18.9000 153.100 TC 50 18.9000 153.165 2 50 18.9000 153.100 50 1005 240 6 300
1953205N17158 1953 32 WP MM LOLA 1953-07-25 21:00:00 TS 19.0507 152.858 main 2176 2150 P________PPP__ WP061953 19.0499 152.850 50 0 19.0499 152.850 TC 50 19.0531 152.883 2 50 19.0499 152.850 50 1005 240 6 302
1953205N17158 1953 32 WP MM LOLA 1953-07-26 00:00:00 TS 19.2000 152.600 main 2150 2125 O________OOO__ jtwc_wp WP061953 19.2000 152.600 50 0 19.2000 152.600 TC 50 19.2000 152.600 2 50 19.2000 152.600 50 1005 240 6 300
1953205N17158 1953 32 WP MM LOLA 1953-07-26 03:00:00 TS 19.3491 152.306 main 2125 2089 P________PPP__ WP061953 19.3575 152.300 50 0 19.3575 152.300 TC 50 19.3239 152.325 2 50 19.3575 152.300 50 1004 270 6 297
1953205N17158 1953 32 WP MM LOLA 1953-07-26 06:00:00 TS 19.4856 152.012 main 2089 2069 O________OPO__ jtwc_wp WP061953 19.5000 152.000 50 0 19.5000 152.000 TC 50 19.4423 152.050 2 50 19.5000 152.000 50 1004 300 6 294
1953205N17158 1953 32 WP MM LOLA 1953-07-26 09:00:00 TS 19.5854 151.756 main 2069 2043 P________PPP__ WP061953 19.5924 151.750 50 0 19.5924 151.750 TC 50 19.5646 151.775 2 50 19.5924 151.750 50 1003 300 5 294
1953205N17158 1953 32 WP MM LOLA 1953-07-26 12:00:00 TS 19.7000 151.500 main 2043 2008 O________OOO__ jtwc_wp WP061953 19.7000 151.500 50 0 19.7000 151.500 TC 50 19.7000 151.500 2 50 19.7000 151.500 50 1002 300 6 300
1953205N17158 1953 32 WP MM LOLA 1953-07-26 15:00:00 TS 19.8855 151.208 main 2008 1973 P________PPP__ WP061953 19.8925 151.200 55 0 19.8925 151.200 TC 55 19.8645 151.233 2 55 19.8925 151.200 55 1000 360 7 305
1953205N17158 1953 32 WP MM LOLA 1953-07-26 18:00:00 TS 20.0855 150.916 main 1973 1952 O________OPO__ jtwc_wp WP061953 20.1000 150.900 60 0 20.1000 150.900 TC 60 20.0422 150.965 2 60 20.1000 150.900 60 999 420 6 305
1953205N17158 1953 32 WP MM LOLA 1953-07-26 21:00:00 TS 20.2434 150.660 main 1952 1917 P________PPP__ WP061953 20.2499 150.650 65 1 20.2499 150.650 TC 65 20.2238 150.689 2 65 20.2499 150.650 65 998 330 6 303
1953205N17158 1953 32 WP MM LOLA 1953-07-27 00:00:00 TS 20.4000 150.400 main 1917 1882 O________OOO__ jtwc_wp WP061953 20.4000 150.400 70 1 20.4000 150.400 TC 70 20.4000 150.400 3 70 20.4000 150.400 70 997 240 6 303
1953205N17158 1953 32 WP MM LOLA 1953-07-27 03:00:00 TS 20.5889 150.099 main 1882 1847 P________PPP__ WP061953 20.6074 150.115 70 1 20.6074 150.115 TC 70 20.5331 150.053 3 70 20.6074 150.115 70 996 210 7 303
1953205N17158 1953 32 WP MM LOLA 1953-07-27 06:00:00 TS 20.7807 149.766 995 tokyo main 1847 1822 OOO______OPO__ jtwc_wp WP061953 20.8000 149.800 70 1 20.9000 149.700 9 995 0 0 0 20.9000 149.700 2 38 995 20.8000 149.800 TC 70 20.6630 149.697 3 70 20.8000 149.800 70 995 180 7 296
1953205N17158 1953 32 WP MM LOLA 1953-07-27 09:00:00 TS 20.8971 149.438 main 1817 1798 PPP______PPP__ WP061953 20.8776 149.435 70 1 21.0426 149.488 9 995 0 0 21.0400 149.550 2 38 995 20.8776 149.435 TC 70 20.8113 149.368 3 70 20.8776 149.435 70 994 180 6 296
1953205N17158 1953 32 WP MM LOLA 1953-07-27 12:00:00 TS 21.0545 149.168 995 tokyo main 1788 1758 OOO______OOO__ jtwc_wp WP061953 21.0000 149.100 70 1 21.2000 149.300 9 995 0 0 0 21.2000 149.400 2 38 995 21.0000 149.100 TC 70 21.0000 149.100 4 70 21.0000 149.100 70 994 180 6 316
1953205N17158 1953 32 WP MM LOLA 1953-07-27 15:00:00 TS 21.3387 148.986 main 1758 1724 PPP______PPP__ WP061953 21.3274 148.848 70 1 21.3849 149.150 9 995 0 0 21.3925 149.250 2 38 995 21.3274 148.848 TC 70 21.2725 148.971 4 70 21.3274 148.848 70 993 180 7 334
1953205N17158 1953 32 WP MM LOLA 1953-07-27 18:00:00 TS 21.6474 148.850 995 tokyo main 1719 1689 OOO______OPO__ jtwc_wp WP061953 21.7000 148.700 70 1 21.6000 149.000 9 995 0 0 0 21.6000 149.100 2 38 995 21.7000 148.700 TC 70 21.5841 148.899 4 71 21.7000 148.700 70 993 180 6 343
1953205N17158 1953 32 WP MM LOLA 1953-07-27 21:00:00 TS 21.9055 148.797 main 1689 1665 PPP______PPP__ WP061953 21.9648 148.722 70 1 21.8424 148.830 9 992 0 0 21.7925 148.957 2 43 992 21.9648 148.722 TC 70 21.9037 148.827 4 71 21.9648 148.722 71 992 180 5 345
1953205N17158 1953 32 WP MM LOLA 1953-07-28 00:00:00 TS 22.1500 148.700 990 tokyo main 1655 1621 OOO______OOO__ jtwc_wp WP061953 22.2000 148.700 70 1 22.1000 148.600 9 990 0 0 0 22.0000 148.800 3 48 990 22.2000 148.700 TC 70 22.2000 148.700 4 72 22.2000 148.700 72 991 180 6 323
1953205N17158 1953 32 WP MM LOLA 1953-07-28 03:00:00 TS 22.3970 148.401 main 1621 1586 PPP______PPP__ WP061953 22.4652 148.395 72 1 22.3502 148.235 9 987 0 0 22.2350 148.600 3 53 987 22.4652 148.395 TC 72 22.4011 148.383 4 72 22.4652 148.395 73 990 180 8 309
1953205N17158 1953 32 WP MM LOLA 1953-07-28 06:00:00 TS 22.6298 148.052 985 tokyo main 1586 1552 OOO______OPO__ jtwc_wp WP061953 22.7000 148.000 75 1 22.6000 147.900 9 985 0 0 0 22.5000 148.400 3 58 985 22.7000 148.000 TC 75 22.5787 148.013 4 73 22.7000 148.000 75 990 180 7 306
1953205N17158 1953 32 WP MM LOLA 1953-07-28 09:00:00 TS 22.8128 147.771 main 1552 1523 PPP______PPP__ WP061953 22.8275 147.655 75 1 22.8349 147.755 9 982 0 0 22.7925 148.242 3 63 982 22.8275 147.655 TC 75 22.7667 147.662 4 74 22.8275 147.655 75 987 180 6 312
1953205N17158 1953 32 WP MM LOLA 1953-07-28 12:00:00 TS 23.0333 147.567 980 tokyo main 1523 1478 OOO______OOO__ jtwc_wp WP061953 23.0000 147.400 75 1 23.1000 147.700 9 980 0 0 0 23.1000 148.100 4 68 980 23.0000 147.400 TC 75 23.0000 147.400 4 75 23.0000 147.400 75 984 180 6 335
1953205N17158 1953 32 WP MM LOLA 1953-07-28 15:00:00 TS 23.3835 147.479 main 1478 1439 PPP______PPP__ WP061953 23.3699 147.290 77 1 23.4425 147.657 9 977 0 0 23.3925 147.957 4 72 977 23.3699 147.290 TC 77 23.3565 147.392 4 76 23.3699 147.290 76 979 180 8 353
1953205N17158 1953 32 WP MM LOLA 1953-07-28 18:00:00 TS 23.7761 147.462 975 tokyo main 1439 1410 OOO______OPO__ jtwc_wp WP061953 23.8000 147.300 80 1 23.8000 147.600 9 975 0 0 0 23.7000 147.800 4 77 975 23.8000 147.300 TC 80 23.7566 147.470 4 77 23.8000 147.300 78 975 180 8 0
1953205N17158 1953 32 WP MM LOLA 1953-07-28 21:00:00 TS 24.1405 147.498 main 1410 1371 PPP______PPP__ WP061953 24.1724 147.452 80 1 24.1149 147.487 9 972 0 0 24.0575 147.608 4 82 972 24.1724 147.452 TC 80 24.1533 147.538 4 78 24.1724 147.452 79 972 180 7 358
1953205N17158 1953 32 WP MM LOLA 1953-07-29 00:00:00 TS 24.4667 147.450 970 tokyo main 1371 1337 OOO______OOO__ jtwc_wp WP061953 24.5000 147.500 80 1 24.4000 147.300 9 970 0 0 0 24.4000 147.400 5 87 970 24.5000 147.500 TC 80 24.5000 147.500 4 80 24.5000 147.500 80 969 180 7 333
1953205N17158 1953 32 WP MM LOLA 1953-07-29 03:00:00 TS 24.7299 147.162 main 1337 1297 PPP______PPP__ WP061953 24.7877 147.176 80 1 24.6500 147.030 9 970 0 0 24.6574 147.215 5 87 970 24.7877 147.176 TC 80 24.7090 147.202 4 80 24.7877 147.176 80 967 210 8 308
1953205N17158 1953 32 WP MM LOLA 1953-07-29 06:00:00 TS 24.9444 146.765 970 tokyo main 1297 1258 OOO______OPO__ jtwc_wp WP061953 25.0000 146.700 80 1 24.9000 146.700 9 970 0 0 0 24.9000 147.000 5 87 970 25.0000 146.700 TC 80 24.8664 146.790 4 80 25.0000 146.700 80 966 240 8 299
1953205N17158 1953 32 WP MM LOLA 1953-07-29 09:00:00 TS 25.1142 146.384 main 1258 1220 PPP______PPP__ WP061953 25.0924 146.299 80 1 25.2000 146.350 9 970 0 0 25.1925 146.722 5 87 970 25.0924 146.299 TC 80 25.0154 146.333 4 80 25.0924 146.299 80 965 240 8 297
1953205N17158 1953 32 WP MM LOLA 1953-07-29 12:00:00 TS 25.3000 146.000 970 tokyo main 1220 1172 OOO______OOO__ jtwc_wp WP061953 25.2000 145.900 80 1 25.5000 146.000 9 970 0 0 0 25.5000 146.400 5 87 970 25.2000 145.900 TC 80 25.2000 145.900 4 80 25.2000 145.900 80 965 240 8 304
1953205N17158 1953 32 WP MM LOLA 1953-07-29 15:00:00 TS 25.5723 145.626 main 1172 1129 PPP______PPP__ WP061953 25.4626 145.463 80 1 25.7574 145.685 9 970 0 0 25.8074 146.065 5 87 970 25.4626 145.463 TC 80 25.4809 145.617 4 80 25.4626 145.463 80 964 240 9 313
1953205N17158 1953 32 WP MM LOLA 1953-07-29 18:00:00 TS 25.8839 145.294 970 tokyo main 1129 1090 OOO______OPO__ jtwc_wp WP061953 25.8000 145.100 80 1 26.0000 145.400 9 970 0 0 0 26.1000 145.700 5 87 970 25.8000 145.100 TC 80 25.8036 145.364 4 80 25.8000 145.100 80 964 240 8 320
1953205N17158 1953 32 WP MM LOLA 1953-07-29 21:00:00 TS 26.1735 145.062 main 1090 1047 PPP______PPP__ WP061953 26.1047 144.927 80 1 26.2122 145.172 9 970 0 0 26.3649 145.315 5 87 970 26.1047 144.927 TC 80 26.1496 145.104 4 80 26.1047 144.927 80 963 240 8 327
1953205N17158 1953 32 WP MM LOLA 1953-07-30 00:00:00 TS 26.5167 144.833 970 tokyo main 1047 988 OOO______OOO__ jtwc_wp WP061953 26.5000 144.800 80 1 26.5000 144.900 9 970 0 0 0 26.6000 144.900 5 87 970 26.5000 144.800 TC 80 26.5000 144.800 4 80 26.5000 144.800 80 963 240 10 331
1953205N17158 1953 32 WP MM LOLA 1953-07-30 03:00:00 TS 27.0165 144.533 main 983 930 PPP______PPP__ WP061953 27.1445 144.625 80 1 27.0001 144.481 9 970 0 0 26.8074 144.457 5 92 969 27.1445 144.625 TC 80 26.8581 144.385 4 80 27.1445 144.625 80 961 240 11 327
1953205N17158 1953 32 WP MM LOLA 1953-07-30 06:00:00 TS 27.4685 144.137 970 tokyo main 916 876 OOO______OPO__ jtwc_wp WP061953 27.7000 144.300 80 1 27.5000 144.000 9 970 0 0 0 27.0000 144.000 5 97 968 27.7000 144.300 TC 80 27.2108 143.924 4 80 27.7000 144.300 80 960 240 11 308
1953205N17158 1953 32 WP MM LOLA 1953-07-30 09:00:00 TS 27.6738 143.594 main 876 848 PPP______PPP__ WP061953 27.8333 143.672 80 1 27.8175 143.535 9 972 0 0 27.1922 143.565 5 97 968 27.8333 143.672 TC 80 27.5331 143.451 4 80 27.8333 143.672 80 961 240 10 287
1953205N17158 1953 32 WP MM LOLA 1953-07-30 12:00:00 TS 27.7667 143.033 975 tokyo main 844 832 OOO______OOO__ jtwc_wp WP061953 27.8000 143.000 80 1 28.0000 143.100 9 975 0 0 0 27.4000 143.100 5 97 968 27.8000 143.000 TC 80 27.8000 143.000 4 80 27.8000 143.000 80 962 240 9 281
1953205N17158 1953 32 WP MM LOLA 1953-07-30 15:00:00 TS 27.8550 142.574 main 821 810 PPP______PPP__ WP061953 27.8271 142.547 80 1 28.0647 142.742 9 975 0 0 27.6505 142.505 5 92 969 27.8271 142.547 TC 80 27.9338 142.555 4 80 27.8271 142.547 80 965 240 8 284
1953205N17158 1953 32 WP MM LOLA 1953-07-30 18:00:00 TS 27.9534 142.191 975 tokyo main 799 781 OOO______OPO__ jtwc_wp WP061953 27.9000 142.200 80 1 28.1000 142.400 9 975 0 0 0 27.9000 142.000 5 87 970 27.9000 142.200 TC 80 28.0202 142.149 4 80 27.9000 142.200 80 968 240 7 291
1953205N17158 1953 32 WP MM LOLA 1953-07-30 21:00:00 TS 28.0923 141.857 main 781 751 PPP______PPP__ WP061953 28.0400 141.855 80 1 28.2202 141.970 9 975 0 0 28.0921 141.789 5 87 970 28.0400 141.855 TC 80 28.1214 141.818 4 80 28.0400 141.855 80 969 240 6 306
1953205N17158 1953 32 WP MM LOLA 1953-07-31 00:00:00 TS 28.3167 141.617 975 tokyo main 751 716 OOO______OOO__ jtwc_wp WP061953 28.3000 141.600 80 1 28.4000 141.600 9 975 0 0 0 28.3000 141.700 5 87 970 28.3000 141.600 TC 80 28.3000 141.600 4 80 28.3000 141.600 80 970 240 7 329
1953205N17158 1953 32 WP MM LOLA 1953-07-31 03:00:00 TS 28.6635 141.463 main 705 660 PPP______PPP__ WP061953 28.7199 141.425 75 1 28.6048 141.405 9 972 0 0 28.5700 141.550 5 87 970 28.7199 141.425 TC 75 28.6464 141.550 4 76 28.7199 141.425 76 969 240 8 347
1953205N17158 1953 32 WP MM LOLA 1953-07-31 06:00:00 TS 29.0791 141.418 970 tokyo main 660 620 OOO______OPO__ jtwc_wp WP061953 29.2000 141.400 70 1 28.9000 141.300 9 970 0 0 0 28.9000 141.400 5 87 971 29.2000 141.400 TC 70 29.0746 141.608 4 72 29.2000 141.400 72 969 240 8 0
1953205N17158 1953 32 WP MM LOLA 1953-07-31 09:00:00 TS 29.4934 141.466 main 620 579 PPP______PPP__ WP061953 29.6076 141.555 67 1 29.3125 141.185 9 970 0 0 29.2850 141.235 5 87 972 29.6076 141.555 TC 67 29.5404 141.712 4 68 29.6076 141.555 68 969 270 9 9
1953205N17158 1953 32 WP MM LOLA 1953-07-31 12:00:00 TS 29.9167 141.567 970 tokyo main 579 539 OOO______OOO__ jtwc_wp WP061953 30.0000 141.800 65 1 29.8000 141.100 9 970 0 0 0 29.7000 141.100 5 87 973 30.0000 141.800 TC 65 30.0000 141.800 4 65 30.0000 141.800 65 970 300 9 13
1953205N17158 1953 32 WP MM LOLA 1953-07-31 15:00:00 TS 30.3351 141.681 main 539 497 PPP______PPP__ WP061953 30.4075 142.074 65 1 30.3225 141.035 9 970 0 0 30.0925 141.035 5 82 974 30.4075 142.074 TC 65 30.3731 141.795 4 65 30.4075 142.074 65 970 300 8 9
1953205N17158 1953 32 WP MM LOLA 1953-07-31 18:00:00 TS 30.7391 141.727 970 tokyo main 497 452 OOO______OPO__ jtwc_wp WP061953 30.8000 142.200 65 1 30.8000 141.000 9 970 0 0 0 30.5000 141.000 4 77 975 30.8000 142.200 TC 65 30.7349 141.760 4 65 30.8000 142.200 65 971 300 8 354
1953205N17158 1953 32 WP MM LOLA 1953-07-31 21:00:00 TS 31.0920 141.593 main 452 414 PPP______PPP__ WP061953 31.1351 141.983 65 1 31.1150 140.992 9 970 0 0 30.9275 140.920 4 77 975 31.1351 141.983 TC 65 31.1043 141.695 4 65 31.1351 141.983 65 971 270 8 338
1953205N17158 1953 32 WP MM LOLA 1953-08-01 00:00:00 TS 31.4667 141.383 970 tokyo main 403 355 OOO______OOO__ jtwc_wp WP061953 31.5000 141.600 65 1 31.4000 141.000 9 970 0 0 0 31.4000 140.900 4 77 975 31.5000 141.600 TC 65 31.5000 141.600 4 65 31.5000 141.600 65 971 240 9 336
1953205N17158 1953 32 WP MM LOLA 1953-08-01 03:00:00 TS 31.9274 141.160 main 355 296 PPP______PPP__ WP061953 31.9853 141.199 65 1 31.7399 140.956 9 970 0 0 31.9425 141.020 4 77 976 31.9853 141.199 TC 65 31.9260 141.390 4 65 31.9853 141.199 65 970 270 10 342
1953205N17158 1953 32 WP MM LOLA 1953-08-01 06:00:00 TS 32.4304 141.011 970 tokyo main 296 244 OOO______OPO__ jtwc_wp WP061953 32.5000 140.900 65 1 32.2000 141.000 9 970 0 0 0 32.5000 141.200 4 77 977 32.5000 140.900 TC 65 32.3823 141.164 4 65 32.5000 140.900 65 970 300 10 353
1953205N17158 1953 32 WP MM LOLA 1953-08-01 09:00:00 TS 32.9107 141.028 main 244 205 PPP______PPP__ WP061953 32.9197 140.853 65 1 32.8478 141.269 9 975 0 0 32.9849 141.336 4 72 978 32.9197 140.853 TC 65 32.8723 141.006 4 65 32.9197 140.853 65 971 270 10 8
1953205N17158 1953 32 WP MM LOLA 1953-08-01 12:00:00 TS 33.4500 141.183 980 tokyo main 196 152 OOO______OOO__ jtwc_wp WP061953 33.4000 141.000 65 1 33.6000 141.600 9 980 0 0 0 33.5000 141.500 4 68 980 33.4000 141.000 TC 65 33.4000 141.000 4 65 33.4000 141.000 65 973 240 13 15
1953205N17158 1953 32 WP MM LOLA 1953-08-01 15:00:00 TS 34.1275 141.406 main 152 123 PPP______PPP__ WP061953 34.0923 141.225 65 1 34.4023 141.801 9 980 0 0 34.1500 141.727 4 68 980 34.0923 141.225 TC 65 33.9359 141.234 4 65 34.0923 141.225 65 975 210 14 19
1953205N17158 1953 32 WP MM LOLA 1953-08-01 18:00:00 TS 34.8017 141.739 980 tokyo main 123 112 OOO______OPO__ jtwc_wp WP061953 34.8000 141.600 65 1 35.1000 142.000 9 980 0 0 0 34.8000 142.000 4 68 980 34.8000 141.600 TC 65 34.5105 141.632 4 65 34.8000 141.600 65 977 180 13 28
1953205N17158 1953 32 WP MM LOLA 1953-08-01 21:00:00 TS 35.3054 142.169 main 125 122 PPP______PPP__ WP061953 35.3076 142.106 65 1 35.4724 142.271 9 980 0 0 35.3074 142.286 4 68 980 35.3076 142.106 TC 65 35.1297 142.139 4 65 35.3076 142.106 65 979 210 13 37
1953205N17158 1953 32 WP MM LOLA 1953-08-02 00:00:00 TS 35.8000 142.667 980 tokyo main 162 162 OOO______OOO__ jtwc_wp WP061953 35.8000 142.700 65 1 35.8000 142.600 9 980 0 0 0 35.8000 142.600 4 68 981 35.8000 142.700 TC 65 35.8000 142.700 4 65 35.8000 142.700 65 981 240 14 37
1953205N17158 1953 32 WP MM LOLA 1953-08-02 03:00:00 TS 36.3994 143.171 main 206 203 PPP______PPP__ WP061953 36.3900 143.301 57 0 36.3627 142.999 9 980 0 0 36.3775 142.943 4 63 983 36.3900 143.301 TC 57 36.4865 143.182 4 58 36.3900 143.301 57 982 240 15 33
1953205N17158 1953 32 WP MM LOLA 1953-08-02 06:00:00 TS 37.0879 143.685 980 tokyo main 234 228 OOO______OPO__ jtwc_wp WP061953 37.1000 143.900 50 0 37.0000 143.400 9 980 0 0 0 37.0000 143.300 3 58 986 37.1000 143.900 TC 50 37.2272 143.713 4 52 37.1000 143.900 50 983 240 16 28
1953205N17158 1953 32 WP MM LOLA 1953-08-02 09:00:00 TS 37.8481 144.151 main 242 234 PPP______PPP__ WP061953 37.9918 144.436 45 0 37.5095 143.681 9 980 0 0 37.5744 143.608 3 58 987 37.9918 144.436 TC 45 38.0294 144.311 4 46 37.9918 144.436 45 984 240 18 26
1953205N17158 1953 32 WP MM LOLA 1953-08-02 12:00:00 TS 38.6833 144.667 980 tokyo main 240 236 OOO______OOO__ jtwc_wp WP061953 38.9000 145.000 40 0 38.2000 144.000 9 980 0 0 0 38.3000 144.000 3 58 988 38.9000 145.000 TC 40 38.9000 145.000 2 40 38.9000 145.000 40 986 240 19 27
1953205N17158 1953 32 WP MM LOLA 1953-08-02 15:00:00 TS 39.5122 145.260 main 273 273 PPP______PPP__ WP061953 39.5386 145.618 35 0 39.3068 144.362 9 985 0 0 39.3093 144.548 3 53 989 39.5386 145.618 TC 35 39.8412 145.797 2 37 39.5386 145.618 35 987 240 21 30
1953205N17158 1953 32 WP MM LOLA 1953-08-02 18:00:00 TS 40.4741 146.009 990 tokyo main 280 211 OOO______OPO__ jtwc_wp WP061953 40.3000 146.400 30 -1 40.6000 145.100 9 990 0 0 0 40.5000 145.300 3 48 990 40.3000 146.400 TC 30 40.8360 146.693 2 35 40.3000 146.400 30 988 240 25 31
1953205N17158 1953 32 WP MM LOLA 1953-08-02 21:00:00 TS 41.6491 146.946 main 211 190 PPP______PPP__ WP061953 41.4736 147.451 30 -1 41.8385 146.485 9 992 0 0 41.7106 146.059 3 43 992 41.4736 147.451 TC 30 41.8629 147.667 2 32 41.4736 147.451 30 989 240 30 33
1953205N17158 1953 32 WP MM LOLA 1953-08-03 00:00:00 MX 42.9500 148.162 995 tokyo main 192 134 OOO______OOO__ jtwc_wp WP061953 42.9000 148.700 30 -1 43.0000 148.300 9 995 0 0 0 43.0000 147.400 9 38 995 42.9000 148.700 TC 30 42.9000 148.700 1 30 42.9000 148.700 30 990 240 34 38
1953205N17158 1953 32 WP MM LOLA 1953-08-03 03:00:00 ET 44.3213 149.753 main 136 113 __P___________ WP061953 -1 9 0 0 44.3213 149.753 9 38 995 TC 1 42 51
1953205N17158 1953 32 WP MM LOLA 1953-08-03 06:00:00 ET 45.6000 152.800 main 193 __O___________ -1 45.6000 152.800 9 38 995 1 50 59

Digital Typhoon Data and Search

About IBTrACS Database

This database is a web-friendly format of International Best Track Archive for Climate Stewardship (IBTrACS), a global best track data archive curated by NOAA dating back to 1842.

Updated: 2021-10-21